sensor_id;sensor_type;location;lat;lon;timestamp;P1;durP1;ratioP1;P2;durP2;ratioP2
20441;SDS011;10380;52.102;20.614;2023-02-15T00:02:26;44.27;;;28.03;;
20441;SDS011;10380;52.102;20.614;2023-02-15T00:04:53;47.87;;;27.83;;
20441;SDS011;10380;52.102;20.614;2023-02-15T00:07:22;44.73;;;28.37;;
20441;SDS011;10380;52.102;20.614;2023-02-15T00:09:48;49.10;;;29.10;;
20441;SDS011;10380;52.102;20.614;2023-02-15T00:12:15;45.87;;;27.50;;
20441;SDS011;10380;52.102;20.614;2023-02-15T00:14:42;43.23;;;26.77;;
20441;SDS011;10380;52.102;20.614;2023-02-15T00:17:09;48.93;;;27.97;;
20441;SDS011;10380;52.102;20.614;2023-02-15T00:19:36;48.37;;;28.30;;
20441;SDS011;10380;52.102;20.614;2023-02-15T00:22:03;45.53;;;26.77;;
20441;SDS011;10380;52.102;20.614;2023-02-15T00:24:30;44.17;;;26.70;;
20441;SDS011;10380;52.102;20.614;2023-02-15T00:26:57;49.27;;;27.50;;
20441;SDS011;10380;52.102;20.614;2023-02-15T00:29:24;42.07;;;25.70;;
20441;SDS011;10380;52.102;20.614;2023-02-15T00:31:51;45.30;;;28.40;;
20441;SDS011;10380;52.102;20.614;2023-02-15T00:34:20;44.67;;;28.60;;
20441;SDS011;10380;52.102;20.614;2023-02-15T00:36:49;38.60;;;24.93;;
20441;SDS011;10380;52.102;20.614;2023-02-15T00:39:16;45.43;;;26.47;;
20441;SDS011;10380;52.102;20.614;2023-02-15T00:41:45;49.73;;;26.60;;
20441;SDS011;10380;52.102;20.614;2023-02-15T00:44:14;44.77;;;26.17;;
20441;SDS011;10380;52.102;20.614;2023-02-15T00:46:42;43.77;;;25.47;;
20441;SDS011;10380;52.102;20.614;2023-02-15T00:49:09;42.33;;;24.30;;
20441;SDS011;10380;52.102;20.614;2023-02-15T00:51:38;41.70;;;25.60;;
20441;SDS011;10380;52.102;20.614;2023-02-15T00:54:05;40.63;;;24.67;;
20441;SDS011;10380;52.102;20.614;2023-02-15T00:56:35;38.37;;;24.23;;
20441;SDS011;10380;52.102;20.614;2023-02-15T00:59:01;38.43;;;24.27;;
20441;SDS011;10380;52.102;20.614;2023-02-15T01:01:29;40.43;;;24.00;;
20441;SDS011;10380;52.102;20.614;2023-02-15T01:03:56;41.33;;;23.77;;
20441;SDS011;10380;52.102;20.614;2023-02-15T01:06:23;41.20;;;24.80;;
20441;SDS011;10380;52.102;20.614;2023-02-15T01:08:51;37.37;;;22.80;;
20441;SDS011;10380;52.102;20.614;2023-02-15T01:11:20;37.30;;;23.73;;
20441;SDS011;10380;52.102;20.614;2023-02-15T01:13:49;41.10;;;24.40;;
20441;SDS011;10380;52.102;20.614;2023-02-15T01:16:17;40.80;;;23.33;;
20441;SDS011;10380;52.102;20.614;2023-02-15T01:18:45;38.87;;;22.27;;
20441;SDS011;10380;52.102;20.614;2023-02-15T01:21:13;41.27;;;22.90;;
20441;SDS011;10380;52.102;20.614;2023-02-15T01:23:42;43.30;;;23.57;;
20441;SDS011;10380;52.102;20.614;2023-02-15T01:26:09;44.30;;;22.13;;
20441;SDS011;10380;52.102;20.614;2023-02-15T01:28:36;36.73;;;21.07;;
20441;SDS011;10380;52.102;20.614;2023-02-15T01:31:06;40.73;;;22.90;;
20441;SDS011;10380;52.102;20.614;2023-02-15T01:33:38;38.27;;;22.67;;
20441;SDS011;10380;52.102;20.614;2023-02-15T01:36:05;39.07;;;21.87;;
20441;SDS011;10380;52.102;20.614;2023-02-15T01:38:32;34.27;;;21.37;;
20441;SDS011;10380;52.102;20.614;2023-02-15T01:41:01;40.70;;;21.67;;
20441;SDS011;10380;52.102;20.614;2023-02-15T01:43:47;40.70;;;21.93;;
20441;SDS011;10380;52.102;20.614;2023-02-15T01:46:23;37.77;;;19.93;;
20441;SDS011;10380;52.102;20.614;2023-02-15T01:49:19;38.63;;;21.27;;
20441;SDS011;10380;52.102;20.614;2023-02-15T01:51:47;41.03;;;21.10;;
20441;SDS011;10380;52.102;20.614;2023-02-15T01:54:23;40.27;;;21.63;;
20441;SDS011;10380;52.102;20.614;2023-02-15T01:56:56;32.53;;;20.37;;
20441;SDS011;10380;52.102;20.614;2023-02-15T01:59:28;38.57;;;21.43;;
20441;SDS011;10380;52.102;20.614;2023-02-15T02:01:59;36.20;;;21.17;;
20441;SDS011;10380;52.102;20.614;2023-02-15T02:07:00;42.20;;;25.27;;
20441;SDS011;10380;52.102;20.614;2023-02-15T02:09:27;47.37;;;27.17;;
20441;SDS011;10380;52.102;20.614;2023-02-15T02:11:55;39.37;;;23.67;;
20441;SDS011;10380;52.102;20.614;2023-02-15T02:14:22;31.67;;;19.80;;
20441;SDS011;10380;52.102;20.614;2023-02-15T02:17:09;30.33;;;18.43;;
20441;SDS011;10380;52.102;20.614;2023-02-15T02:34:25;33.70;;;18.63;;
20441;SDS011;10380;52.102;20.614;2023-02-15T02:37:08;33.17;;;18.63;;
20441;SDS011;10380;52.102;20.614;2023-02-15T02:45:06;35.47;;;18.90;;
20441;SDS011;10380;52.102;20.614;2023-02-15T02:47:43;33.93;;;19.73;;
20441;SDS011;10380;52.102;20.614;2023-02-15T02:50:21;36.83;;;19.13;;
20441;SDS011;10380;52.102;20.614;2023-02-15T02:52:50;32.10;;;20.10;;
20441;SDS011;10380;52.102;20.614;2023-02-15T02:55:51;33.33;;;20.43;;
20441;SDS011;10380;52.102;20.614;2023-02-15T02:58:27;39.13;;;21.10;;
20441;SDS011;10380;52.102;20.614;2023-02-15T03:01:02;40.43;;;21.90;;
20441;SDS011;10380;52.102;20.614;2023-02-15T03:03:34;32.87;;;19.03;;
20441;SDS011;10380;52.102;20.614;2023-02-15T03:06:17;33.10;;;20.33;;
20441;SDS011;10380;52.102;20.614;2023-02-15T03:08:47;36.40;;;20.90;;
20441;SDS011;10380;52.102;20.614;2023-02-15T03:11:17;35.27;;;21.40;;
20441;SDS011;10380;52.102;20.614;2023-02-15T03:13:45;35.63;;;21.43;;
20441;SDS011;10380;52.102;20.614;2023-02-15T03:16:14;38.07;;;20.77;;
20441;SDS011;10380;52.102;20.614;2023-02-15T03:18:56;39.20;;;19.90;;
20441;SDS011;10380;52.102;20.614;2023-02-15T03:21:45;35.77;;;20.37;;
20441;SDS011;10380;52.102;20.614;2023-02-15T03:24:34;33.60;;;19.77;;
20441;SDS011;10380;52.102;20.614;2023-02-15T03:27:07;35.43;;;21.40;;
20441;SDS011;10380;52.102;20.614;2023-02-15T03:29:46;36.87;;;20.47;;
20441;SDS011;10380;52.102;20.614;2023-02-15T03:32:18;30.87;;;19.30;;
20441;SDS011;10380;52.102;20.614;2023-02-15T03:34:45;37.40;;;20.77;;
20441;SDS011;10380;52.102;20.614;2023-02-15T03:43:24;29.70;;;19.30;;
20441;SDS011;10380;52.102;20.614;2023-02-15T03:46:15;32.63;;;18.93;;
20441;SDS011;10380;52.102;20.614;2023-02-15T03:49:09;35.50;;;20.43;;
20441;SDS011;10380;52.102;20.614;2023-02-15T03:51:40;33.47;;;19.83;;
20441;SDS011;10380;52.102;20.614;2023-02-15T03:57:13;31.07;;;18.30;;
20441;SDS011;10380;52.102;20.614;2023-02-15T04:00:12;26.37;;;16.13;;
20441;SDS011;10380;52.102;20.614;2023-02-15T04:03:22;30.43;;;16.67;;
20441;SDS011;10380;52.102;20.614;2023-02-15T04:05:50;25.67;;;16.17;;
20441;SDS011;10380;52.102;20.614;2023-02-15T04:08:18;32.53;;;17.53;;
20441;SDS011;10380;52.102;20.614;2023-02-15T04:10:44;25.77;;;15.80;;
20441;SDS011;10380;52.102;20.614;2023-02-15T04:13:23;29.03;;;17.43;;
20441;SDS011;10380;52.102;20.614;2023-02-15T04:15:56;28.07;;;15.13;;
20441;SDS011;10380;52.102;20.614;2023-02-15T04:18:41;28.73;;;15.73;;
20441;SDS011;10380;52.102;20.614;2023-02-15T04:21:29;29.90;;;16.93;;
20441;SDS011;10380;52.102;20.614;2023-02-15T04:24:15;32.63;;;17.77;;
20441;SDS011;10380;52.102;20.614;2023-02-15T04:27:02;30.00;;;18.30;;
20441;SDS011;10380;52.102;20.614;2023-02-15T04:29:30;31.67;;;19.27;;
20441;SDS011;10380;52.102;20.614;2023-02-15T04:31:58;33.57;;;18.30;;
20441;SDS011;10380;52.102;20.614;2023-02-15T04:34:26;31.00;;;18.43;;
20441;SDS011;10380;52.102;20.614;2023-02-15T04:36:54;31.93;;;18.37;;
20441;SDS011;10380;52.102;20.614;2023-02-15T04:39:22;30.53;;;18.77;;
20441;SDS011;10380;52.102;20.614;2023-02-15T04:41:48;35.93;;;19.10;;
20441;SDS011;10380;52.102;20.614;2023-02-15T04:44:15;36.03;;;19.77;;
20441;SDS011;10380;52.102;20.614;2023-02-15T04:46:42;38.03;;;20.47;;
20441;SDS011;10380;52.102;20.614;2023-02-15T04:49:10;31.23;;;18.23;;
20441;SDS011;10380;52.102;20.614;2023-02-15T04:51:37;32.53;;;18.13;;
20441;SDS011;10380;52.102;20.614;2023-02-15T04:54:04;37.00;;;19.17;;
20441;SDS011;10380;52.102;20.614;2023-02-15T04:56:31;37.77;;;19.33;;
20441;SDS011;10380;52.102;20.614;2023-02-15T04:58:59;38.77;;;19.63;;
20441;SDS011;10380;52.102;20.614;2023-02-15T05:01:26;29.63;;;18.40;;
20441;SDS011;10380;52.102;20.614;2023-02-15T05:03:54;30.60;;;17.13;;
20441;SDS011;10380;52.102;20.614;2023-02-15T05:06:21;29.60;;;15.97;;
20441;SDS011;10380;52.102;20.614;2023-02-15T05:08:48;31.20;;;17.97;;
20441;SDS011;10380;52.102;20.614;2023-02-15T05:11:15;34.17;;;18.30;;
20441;SDS011;10380;52.102;20.614;2023-02-15T05:13:44;33.40;;;18.33;;
20441;SDS011;10380;52.102;20.614;2023-02-15T05:16:11;31.03;;;18.03;;
20441;SDS011;10380;52.102;20.614;2023-02-15T05:18:38;33.30;;;18.83;;
20441;SDS011;10380;52.102;20.614;2023-02-15T05:21:05;39.13;;;20.73;;
20441;SDS011;10380;52.102;20.614;2023-02-15T05:23:32;44.37;;;21.80;;
20441;SDS011;10380;52.102;20.614;2023-02-15T05:25:59;39.27;;;22.60;;
20441;SDS011;10380;52.102;20.614;2023-02-15T05:28:44;40.87;;;22.37;;
20441;SDS011;10380;52.102;20.614;2023-02-15T05:31:13;39.33;;;20.23;;
20441;SDS011;10380;52.102;20.614;2023-02-15T05:33:43;35.97;;;19.00;;
20441;SDS011;10380;52.102;20.614;2023-02-15T05:36:10;35.03;;;20.17;;
20441;SDS011;10380;52.102;20.614;2023-02-15T05:38:38;41.33;;;22.77;;
20441;SDS011;10380;52.102;20.614;2023-02-15T05:41:05;41.00;;;21.17;;
20441;SDS011;10380;52.102;20.614;2023-02-15T05:43:33;33.60;;;19.03;;
20441;SDS011;10380;52.102;20.614;2023-02-15T05:46:00;35.90;;;21.60;;
20441;SDS011;10380;52.102;20.614;2023-02-15T05:48:28;42.53;;;22.53;;
20441;SDS011;10380;52.102;20.614;2023-02-15T05:53:27;42.13;;;22.47;;
20441;SDS011;10380;52.102;20.614;2023-02-15T05:55:54;45.53;;;22.63;;
20441;SDS011;10380;52.102;20.614;2023-02-15T05:58:26;46.97;;;24.30;;
20441;SDS011;10380;52.102;20.614;2023-02-15T06:00:56;40.10;;;23.07;;
20441;SDS011;10380;52.102;20.614;2023-02-15T06:03:23;43.53;;;24.57;;
20441;SDS011;10380;52.102;20.614;2023-02-15T06:05:52;45.17;;;24.10;;
20441;SDS011;10380;52.102;20.614;2023-02-15T06:08:19;42.57;;;23.80;;
20441;SDS011;10380;52.102;20.614;2023-02-15T06:10:46;47.40;;;25.33;;
20441;SDS011;10380;52.102;20.614;2023-02-15T06:13:13;37.13;;;21.90;;
20441;SDS011;10380;52.102;20.614;2023-02-15T06:15:40;37.13;;;17.50;;
20441;SDS011;10380;52.102;20.614;2023-02-15T06:18:07;32.63;;;19.03;;
20441;SDS011;10380;52.102;20.614;2023-02-15T06:20:34;39.17;;;19.90;;
20441;SDS011;10380;52.102;20.614;2023-02-15T06:23:00;39.23;;;20.00;;
20441;SDS011;10380;52.102;20.614;2023-02-15T06:25:27;37.00;;;20.03;;
20441;SDS011;10380;52.102;20.614;2023-02-15T06:27:55;35.60;;;18.80;;
20441;SDS011;10380;52.102;20.614;2023-02-15T06:30:21;37.23;;;19.77;;
20441;SDS011;10380;52.102;20.614;2023-02-15T06:32:48;39.30;;;20.67;;
20441;SDS011;10380;52.102;20.614;2023-02-15T06:35:15;42.83;;;21.63;;
20441;SDS011;10380;52.102;20.614;2023-02-15T06:37:42;40.97;;;22.30;;
20441;SDS011;10380;52.102;20.614;2023-02-15T06:40:12;38.43;;;20.70;;
20441;SDS011;10380;52.102;20.614;2023-02-15T06:42:39;42.33;;;23.00;;
20441;SDS011;10380;52.102;20.614;2023-02-15T06:45:07;35.80;;;18.80;;
20441;SDS011;10380;52.102;20.614;2023-02-15T06:47:35;30.53;;;17.03;;
20441;SDS011;10380;52.102;20.614;2023-02-15T06:50:05;33.60;;;18.63;;
20441;SDS011;10380;52.102;20.614;2023-02-15T06:52:33;33.03;;;18.57;;
20441;SDS011;10380;52.102;20.614;2023-02-15T06:55:00;34.37;;;18.93;;
20441;SDS011;10380;52.102;20.614;2023-02-15T06:57:27;43.27;;;21.93;;
20441;SDS011;10380;52.102;20.614;2023-02-15T06:59:53;39.30;;;21.70;;
20441;SDS011;10380;52.102;20.614;2023-02-15T07:02:20;39.47;;;21.10;;
20441;SDS011;10380;52.102;20.614;2023-02-15T07:04:47;43.60;;;22.03;;
20441;SDS011;10380;52.102;20.614;2023-02-15T07:07:14;41.77;;;22.77;;
20441;SDS011;10380;52.102;20.614;2023-02-15T07:09:41;34.43;;;18.97;;
20441;SDS011;10380;52.102;20.614;2023-02-15T07:12:09;35.60;;;18.93;;
20441;SDS011;10380;52.102;20.614;2023-02-15T07:14:55;40.97;;;22.87;;
20441;SDS011;10380;52.102;20.614;2023-02-15T07:17:21;38.30;;;21.03;;
20441;SDS011;10380;52.102;20.614;2023-02-15T07:20:10;42.03;;;21.83;;
20441;SDS011;10380;52.102;20.614;2023-02-15T07:22:39;41.33;;;21.53;;
20441;SDS011;10380;52.102;20.614;2023-02-15T07:25:07;38.63;;;20.57;;
20441;SDS011;10380;52.102;20.614;2023-02-15T07:27:36;37.80;;;20.40;;
20441;SDS011;10380;52.102;20.614;2023-02-15T07:30:03;36.73;;;19.10;;
20441;SDS011;10380;52.102;20.614;2023-02-15T07:32:32;33.27;;;19.70;;
20441;SDS011;10380;52.102;20.614;2023-02-15T07:35:00;36.83;;;20.83;;
20441;SDS011;10380;52.102;20.614;2023-02-15T07:37:27;34.83;;;21.07;;
20441;SDS011;10380;52.102;20.614;2023-02-15T07:39:54;38.50;;;20.40;;
20441;SDS011;10380;52.102;20.614;2023-02-15T07:42:21;45.17;;;22.27;;
20441;SDS011;10380;52.102;20.614;2023-02-15T07:44:48;44.40;;;25.70;;
20441;SDS011;10380;52.102;20.614;2023-02-15T07:47:15;35.60;;;19.80;;
20441;SDS011;10380;52.102;20.614;2023-02-15T07:49:42;35.30;;;19.07;;
20441;SDS011;10380;52.102;20.614;2023-02-15T07:52:09;32.30;;;18.27;;
20441;SDS011;10380;52.102;20.614;2023-02-15T07:54:36;31.93;;;17.07;;
20441;SDS011;10380;52.102;20.614;2023-02-15T07:57:03;37.40;;;18.80;;
20441;SDS011;10380;52.102;20.614;2023-02-15T07:59:30;34.10;;;18.47;;
20441;SDS011;10380;52.102;20.614;2023-02-15T08:01:57;32.53;;;17.47;;
20441;SDS011;10380;52.102;20.614;2023-02-15T08:04:24;37.17;;;17.63;;
20441;SDS011;10380;52.102;20.614;2023-02-15T08:06:52;34.63;;;19.10;;
20441;SDS011;10380;52.102;20.614;2023-02-15T08:09:20;36.17;;;20.73;;
20441;SDS011;10380;52.102;20.614;2023-02-15T08:11:48;37.77;;;20.83;;
20441;SDS011;10380;52.102;20.614;2023-02-15T08:14:20;45.70;;;26.07;;
20441;SDS011;10380;52.102;20.614;2023-02-15T08:16:51;54.97;;;23.73;;
20441;SDS011;10380;52.102;20.614;2023-02-15T08:19:28;46.03;;;25.20;;
20441;SDS011;10380;52.102;20.614;2023-02-15T08:21:58;46.77;;;25.07;;
20441;SDS011;10380;52.102;20.614;2023-02-15T08:24:29;46.13;;;21.43;;
20441;SDS011;10380;52.102;20.614;2023-02-15T08:26:58;37.00;;;19.87;;
20441;SDS011;10380;52.102;20.614;2023-02-15T08:29:26;39.43;;;20.97;;
20441;SDS011;10380;52.102;20.614;2023-02-15T08:31:56;38.53;;;20.17;;
20441;SDS011;10380;52.102;20.614;2023-02-15T08:34:29;45.40;;;20.97;;
20441;SDS011;10380;52.102;20.614;2023-02-15T08:36:57;38.43;;;20.17;;
20441;SDS011;10380;52.102;20.614;2023-02-15T08:39:24;34.93;;;21.77;;
20441;SDS011;10380;52.102;20.614;2023-02-15T08:41:51;30.93;;;17.40;;
20441;SDS011;10380;52.102;20.614;2023-02-15T08:44:19;32.47;;;18.93;;
20441;SDS011;10380;52.102;20.614;2023-02-15T08:46:47;35.53;;;19.73;;
20441;SDS011;10380;52.102;20.614;2023-02-15T08:49:18;33.93;;;17.90;;
20441;SDS011;10380;52.102;20.614;2023-02-15T08:51:47;38.03;;;19.50;;
20441;SDS011;10380;52.102;20.614;2023-02-15T08:54:16;35.87;;;18.70;;
20441;SDS011;10380;52.102;20.614;2023-02-15T08:56:45;28.47;;;16.67;;
20441;SDS011;10380;52.102;20.614;2023-02-15T08:59:14;26.83;;;16.50;;
20441;SDS011;10380;52.102;20.614;2023-02-15T09:01:43;32.63;;;16.47;;
20441;SDS011;10380;52.102;20.614;2023-02-15T09:04:11;27.43;;;16.43;;
20441;SDS011;10380;52.102;20.614;2023-02-15T09:06:41;30.43;;;16.50;;
20441;SDS011;10380;52.102;20.614;2023-02-15T09:09:13;28.53;;;16.47;;
20441;SDS011;10380;52.102;20.614;2023-02-15T09:11:42;24.90;;;15.93;;
20441;SDS011;10380;52.102;20.614;2023-02-15T09:14:11;26.93;;;17.00;;
20441;SDS011;10380;52.102;20.614;2023-02-15T09:16:43;35.37;;;18.00;;
20441;SDS011;10380;52.102;20.614;2023-02-15T09:19:12;35.97;;;20.27;;
20441;SDS011;10380;52.102;20.614;2023-02-15T09:21:40;36.83;;;20.73;;
20441;SDS011;10380;52.102;20.614;2023-02-15T09:24:08;30.63;;;17.87;;
20441;SDS011;10380;52.102;20.614;2023-02-15T09:26:38;34.40;;;19.53;;
20441;SDS011;10380;52.102;20.614;2023-02-15T09:29:07;32.73;;;19.03;;
20441;SDS011;10380;52.102;20.614;2023-02-15T09:31:40;27.30;;;16.23;;
20441;SDS011;10380;52.102;20.614;2023-02-15T09:34:12;28.23;;;15.73;;
20441;SDS011;10380;52.102;20.614;2023-02-15T09:36:40;30.30;;;17.60;;
20441;SDS011;10380;52.102;20.614;2023-02-15T09:39:11;28.17;;;16.73;;
20441;SDS011;10380;52.102;20.614;2023-02-15T09:44:42;43.90;;;22.03;;
20441;SDS011;10380;52.102;20.614;2023-02-15T09:47:18;41.67;;;21.30;;
20441;SDS011;10380;52.102;20.614;2023-02-15T09:50:03;32.67;;;18.63;;
20441;SDS011;10380;52.102;20.614;2023-02-15T09:56:13;34.27;;;18.47;;
20441;SDS011;10380;52.102;20.614;2023-02-15T09:59:06;28.50;;;17.50;;
20441;SDS011;10380;52.102;20.614;2023-02-15T10:04:38;30.27;;;19.30;;
20441;SDS011;10380;52.102;20.614;2023-02-15T10:07:38;36.50;;;20.60;;
20441;SDS011;10380;52.102;20.614;2023-02-15T10:13:36;34.33;;;21.57;;
20441;SDS011;10380;52.102;20.614;2023-02-15T10:16:14;33.73;;;20.33;;
20441;SDS011;10380;52.102;20.614;2023-02-15T10:19:33;43.83;;;22.17;;
20441;SDS011;10380;52.102;20.614;2023-02-15T10:28:06;36.97;;;23.60;;
20441;SDS011;10380;52.102;20.614;2023-02-15T10:30:46;41.97;;;24.43;;
20441;SDS011;10380;52.102;20.614;2023-02-15T10:38:41;40.87;;;22.43;;
20441;SDS011;10380;52.102;20.614;2023-02-15T10:44:30;42.67;;;22.67;;
20441;SDS011;10380;52.102;20.614;2023-02-15T10:58:07;35.37;;;20.20;;
20441;SDS011;10380;52.102;20.614;2023-02-15T11:06:23;34.50;;;18.70;;
20441;SDS011;10380;52.102;20.614;2023-02-15T11:08:57;40.40;;;21.10;;
20441;SDS011;10380;52.102;20.614;2023-02-15T11:11:29;37.13;;;22.03;;
20441;SDS011;10380;52.102;20.614;2023-02-15T11:14:01;43.93;;;25.97;;
20441;SDS011;10380;52.102;20.614;2023-02-15T11:16:36;43.80;;;26.10;;
20441;SDS011;10380;52.102;20.614;2023-02-15T11:19:51;43.03;;;26.63;;
20441;SDS011;10380;52.102;20.614;2023-02-15T11:22:04;40.37;;;24.07;;
20441;SDS011;10380;52.102;20.614;2023-02-15T11:24:33;39.00;;;23.43;;
20441;SDS011;10380;52.102;20.614;2023-02-15T11:27:24;42.83;;;24.27;;
20441;SDS011;10380;52.102;20.614;2023-02-15T11:32:35;41.00;;;23.30;;
20441;SDS011;10380;52.102;20.614;2023-02-15T11:35:11;40.33;;;23.10;;
20441;SDS011;10380;52.102;20.614;2023-02-15T11:37:55;46.67;;;24.73;;
20441;SDS011;10380;52.102;20.614;2023-02-15T11:40:49;36.37;;;22.03;;
20441;SDS011;10380;52.102;20.614;2023-02-15T11:46:10;35.03;;;20.97;;
20441;SDS011;10380;52.102;20.614;2023-02-15T11:48:38;33.83;;;20.33;;
20441;SDS011;10380;52.102;20.614;2023-02-15T11:51:08;39.80;;;19.30;;
20441;SDS011;10380;52.102;20.614;2023-02-15T11:53:39;39.53;;;19.33;;
20441;SDS011;10380;52.102;20.614;2023-02-15T11:56:12;32.60;;;19.27;;
20441;SDS011;10380;52.102;20.614;2023-02-15T12:01:16;35.27;;;19.83;;
20441;SDS011;10380;52.102;20.614;2023-02-15T12:06:21;32.03;;;19.00;;
20441;SDS011;10380;52.102;20.614;2023-02-15T12:08:51;32.73;;;19.43;;
20441;SDS011;10380;52.102;20.614;2023-02-15T12:11:39;34.93;;;20.30;;
20441;SDS011;10380;52.102;20.614;2023-02-15T12:14:10;39.53;;;21.63;;
20441;SDS011;10380;52.102;20.614;2023-02-15T12:16:50;37.70;;;22.80;;
20441;SDS011;10380;52.102;20.614;2023-02-15T12:22:01;44.47;;;24.80;;
20441;SDS011;10380;52.102;20.614;2023-02-15T12:24:30;40.13;;;22.63;;
20441;SDS011;10380;52.102;20.614;2023-02-15T12:27:10;37.53;;;20.80;;
20441;SDS011;10380;52.102;20.614;2023-02-15T12:32:51;37.80;;;21.73;;
20441;SDS011;10380;52.102;20.614;2023-02-15T12:35:24;41.10;;;23.27;;
20441;SDS011;10380;52.102;20.614;2023-02-15T12:38:00;41.07;;;24.27;;
20441;SDS011;10380;52.102;20.614;2023-02-15T12:40:37;60.20;;;31.77;;
20441;SDS011;10380;52.102;20.614;2023-02-15T12:43:24;39.87;;;25.00;;
20441;SDS011;10380;52.102;20.614;2023-02-15T12:46:19;47.83;;;27.93;;
20441;SDS011;10380;52.102;20.614;2023-02-15T12:51:50;46.57;;;27.67;;
20441;SDS011;10380;52.102;20.614;2023-02-15T12:54:29;48.43;;;25.70;;
20441;SDS011;10380;52.102;20.614;2023-02-15T12:59:56;45.00;;;26.67;;
20441;SDS011;10380;52.102;20.614;2023-02-15T13:02:36;44.97;;;26.27;;
20441;SDS011;10380;52.102;20.614;2023-02-15T13:07:58;36.83;;;20.40;;
20441;SDS011;10380;52.102;20.614;2023-02-15T13:10:35;38.83;;;23.37;;
20441;SDS011;10380;52.102;20.614;2023-02-15T13:13:15;42.90;;;24.40;;
20441;SDS011;10380;52.102;20.614;2023-02-15T13:15:51;42.67;;;23.40;;
20441;SDS011;10380;52.102;20.614;2023-02-15T13:21:20;44.73;;;24.50;;
20441;SDS011;10380;52.102;20.614;2023-02-15T13:23:52;45.40;;;25.47;;
20441;SDS011;10380;52.102;20.614;2023-02-15T13:26:25;44.93;;;26.30;;
20441;SDS011;10380;52.102;20.614;2023-02-15T13:28:56;47.87;;;26.83;;
20441;SDS011;10380;52.102;20.614;2023-02-15T13:31:34;49.47;;;27.97;;
20441;SDS011;10380;52.102;20.614;2023-02-15T13:34:13;51.00;;;28.83;;
20441;SDS011;10380;52.102;20.614;2023-02-15T13:37:33;53.87;;;30.20;;
20441;SDS011;10380;52.102;20.614;2023-02-15T13:47:42;48.07;;;24.93;;
20441;SDS011;10380;52.102;20.614;2023-02-15T13:58:52;47.97;;;27.17;;
20441;SDS011;10380;52.102;20.614;2023-02-15T14:04:22;45.67;;;25.00;;
20441;SDS011;10380;52.102;20.614;2023-02-15T14:10:02;48.70;;;24.63;;
20441;SDS011;10380;52.102;20.614;2023-02-15T14:23:14;37.80;;;20.93;;
20441;SDS011;10380;52.102;20.614;2023-02-15T14:26:00;37.03;;;22.23;;
20441;SDS011;10380;52.102;20.614;2023-02-15T14:31:09;37.87;;;21.67;;
20441;SDS011;10380;52.102;20.614;2023-02-15T14:34:15;38.10;;;21.27;;
20441;SDS011;10380;52.102;20.614;2023-02-15T14:36:38;34.00;;;20.50;;
20441;SDS011;10380;52.102;20.614;2023-02-15T14:39:15;38.77;;;21.20;;
20441;SDS011;10380;52.102;20.614;2023-02-15T14:48:11;38.67;;;20.30;;
20441;SDS011;10380;52.102;20.614;2023-02-15T14:50:47;38.63;;;19.80;;
20441;SDS011;10380;52.102;20.614;2023-02-15T14:53:15;39.47;;;21.30;;
20441;SDS011;10380;52.102;20.614;2023-02-15T14:56:04;38.70;;;20.83;;
20441;SDS011;10380;52.102;20.614;2023-02-15T14:58:35;39.13;;;21.27;;
20441;SDS011;10380;52.102;20.614;2023-02-15T15:01:04;38.83;;;19.70;;
20441;SDS011;10380;52.102;20.614;2023-02-15T15:03:43;41.27;;;22.97;;
20441;SDS011;10380;52.102;20.614;2023-02-15T15:06:37;37.67;;;20.73;;
20441;SDS011;10380;52.102;20.614;2023-02-15T15:09:11;37.77;;;20.40;;
20441;SDS011;10380;52.102;20.614;2023-02-15T15:11:51;37.90;;;21.13;;
20441;SDS011;10380;52.102;20.614;2023-02-15T15:17:05;34.33;;;19.07;;
20441;SDS011;10380;52.102;20.614;2023-02-15T15:22:18;33.83;;;18.87;;
20441;SDS011;10380;52.102;20.614;2023-02-15T15:35:36;31.50;;;16.77;;
20441;SDS011;10380;52.102;20.614;2023-02-15T15:41:10;33.43;;;18.53;;
20441;SDS011;10380;52.102;20.614;2023-02-15T15:48:59;36.10;;;18.77;;
20441;SDS011;10380;52.102;20.614;2023-02-15T15:51:39;37.47;;;18.83;;
20441;SDS011;10380;52.102;20.614;2023-02-15T15:56:49;36.13;;;19.20;;
20441;SDS011;10380;52.102;20.614;2023-02-15T15:59:30;36.90;;;19.27;;
20441;SDS011;10380;52.102;20.614;2023-02-15T16:02:10;34.60;;;20.40;;
20441;SDS011;10380;52.102;20.614;2023-02-15T16:04:41;43.77;;;22.90;;
20441;SDS011;10380;52.102;20.614;2023-02-15T16:10:02;42.57;;;22.67;;
20441;SDS011;10380;52.102;20.614;2023-02-15T16:12:34;39.27;;;20.57;;
20441;SDS011;10380;52.102;20.614;2023-02-15T16:15:19;45.70;;;23.77;;
20441;SDS011;10380;52.102;20.614;2023-02-15T16:17:50;37.60;;;21.40;;
20441;SDS011;10380;52.102;20.614;2023-02-15T16:20:22;43.00;;;23.80;;
20441;SDS011;10380;52.102;20.614;2023-02-15T16:25:59;43.27;;;20.97;;
20441;SDS011;10380;52.102;20.614;2023-02-15T16:28:50;38.00;;;21.23;;
20441;SDS011;10380;52.102;20.614;2023-02-15T16:31:19;36.00;;;20.23;;
20441;SDS011;10380;52.102;20.614;2023-02-15T16:33:51;44.93;;;23.77;;
20441;SDS011;10380;52.102;20.614;2023-02-15T16:36:24;40.93;;;23.30;;
20441;SDS011;10380;52.102;20.614;2023-02-15T16:41:27;40.77;;;22.23;;
20441;SDS011;10380;52.102;20.614;2023-02-15T16:43:59;43.67;;;24.83;;
20441;SDS011;10380;52.102;20.614;2023-02-15T16:46:41;47.17;;;26.03;;
20441;SDS011;10380;52.102;20.614;2023-02-15T16:49:16;49.80;;;26.30;;
20441;SDS011;10380;52.102;20.614;2023-02-15T16:54:32;61.10;;;31.73;;
20441;SDS011;10380;52.102;20.614;2023-02-15T16:57:00;52.17;;;28.57;;
20441;SDS011;10380;52.102;20.614;2023-02-15T16:59:36;40.93;;;22.77;;
20441;SDS011;10380;52.102;20.614;2023-02-15T17:02:18;38.13;;;22.50;;
20441;SDS011;10380;52.102;20.614;2023-02-15T17:13:26;46.27;;;26.43;;
20441;SDS011;10380;52.102;20.614;2023-02-15T17:18:37;34.40;;;22.30;;
20441;SDS011;10380;52.102;20.614;2023-02-15T17:21:11;43.90;;;24.57;;
20441;SDS011;10380;52.102;20.614;2023-02-15T17:23:47;39.63;;;21.20;;
20441;SDS011;10380;52.102;20.614;2023-02-15T17:26:26;37.40;;;20.90;;
20441;SDS011;10380;52.102;20.614;2023-02-15T17:28:59;35.13;;;20.87;;
20441;SDS011;10380;52.102;20.614;2023-02-15T17:31:37;36.77;;;20.73;;
20441;SDS011;10380;52.102;20.614;2023-02-15T17:34:04;37.67;;;21.07;;
20441;SDS011;10380;52.102;20.614;2023-02-15T17:36:32;40.00;;;22.27;;
20441;SDS011;10380;52.102;20.614;2023-02-15T17:39:01;34.23;;;21.23;;
20441;SDS011;10380;52.102;20.614;2023-02-15T17:41:33;34.83;;;21.00;;
20441;SDS011;10380;52.102;20.614;2023-02-15T17:44:01;39.77;;;22.60;;
20441;SDS011;10380;52.102;20.614;2023-02-15T17:46:33;42.70;;;23.40;;
20441;SDS011;10380;52.102;20.614;2023-02-15T17:49:02;41.27;;;22.80;;
20441;SDS011;10380;52.102;20.614;2023-02-15T17:51:30;38.83;;;23.20;;
20441;SDS011;10380;52.102;20.614;2023-02-15T17:53:58;36.60;;;21.57;;
20441;SDS011;10380;52.102;20.614;2023-02-15T17:56:44;42.63;;;22.70;;
20441;SDS011;10380;52.102;20.614;2023-02-15T17:59:10;44.20;;;22.67;;